Terminal Aerodrome Forecast
Issued by NWS Brownsville, TX

Home | Current Version | Previous Version | Text Only | Print | Product List | Glossary On
Versions: 1 2 3 4 5 6 7 8 9 10 11 12 13 14
000
FTUS44 KBRO 031730
TAFMFE
TAF
KMFE 031730Z 0318/0418 00000KT 3SM BR OVC003
     FM031900 15013G18KT 5SM BR OVC008
     FM032000 15017G22KT 6SM BR BKN015
     FM040200 15015G20KT 6SM BR BKN012
     FM040300 16015G20KT 5SM BR BKN006
     FM041500 17015G20KT P6SM BKN015=

USA.gov is the U.S. government's official web portal to all federal, state and local government web resources and services.